Forsan, Texas
Current Conditions -  °F | °C
As of 9:55 PM on Saturday 20 Dec 2014 (Local Time) from KBPG Reporting Station
Clear Clear  
Wind Chill: 39°   Ceiling: Unl
Heat Index: 44°   Visibility: 7mi
Dew Point: 40°   Wind: 8mph
Humidity: 88%   Direction: 150°SSE
Pressure: 30.09"   Gusts: NA
Location:  32.11°N, 101.37°W
Report Text: KBPG 210355Z AUTO 15007KT 7SM CLR 06/05 A3009 RMK AO2 T00640046
Loading
Personal Weather Stations






























Interactive Weather Map New forecast layout! Learn more

10-Day Weather Forecast

Advertisements
Track Severe Weather on mobile